Apollo Beach, Florida
Current Conditions -  °F | °C
As of 12:58 PM on Monday 20 Oct 2014 (Local Time) from KMCF Reporting Station
Clear Clear  
Wind Chill: 85°   Ceiling: Unl
Heat Index: 87°   Visibility: 10mi
Dew Point: 65°   Wind: 6mph
Humidity: 51%   Direction: 190°S
Pressure: 30.02"   Gusts: NA
Location:  27.77°N, 82.39°W
Report Text: KMCF 201658Z AUTO 19005KT 10SM CLR 30/19 A3002 RMK AO2 SLP169 T02950185
Loading
Personal Weather Stations






























Interactive Weather Map New forecast layout! Learn more

10-Day Weather Forecast

Advertisements
Track Severe Weather on mobile